Time;durP1;ratioP1;P1;durP2;ratioP2;P2;SDS_P1;SDS_P2;PMS_P1;PMS_P2;Temp;Humidity;BMP_temperature;BMP_pressure;BME280_temperature;BME280_humidity;BME280_pressure;Samples;Min_cycle;Max_cycle;Signal;HPM_P1;HPM_P2
2022/10/07 00:00:33;;;;;;;3.73;2.73;;;;;;;;;;5076482;28;20303;-78
2022/10/07 00:03:00;;;;;;;7.17;2.83;;;;;;;;;;5075972;28;20245;-79
2022/10/07 00:05:28;;;;;;;3.70;3.00;;;;;;;;;;5076352;28;20216;-79
2022/10/07 00:07:55;;;;;;;4.53;2.90;;;;;;;;;;5075759;28;20236;-79
2022/10/07 00:10:22;;;;;;;3.63;2.97;;;;;;;;;;5076156;28;20227;-78
2022/10/07 00:12:50;;;;;;;4.37;2.40;;;;;;;;;;5075357;28;20237;-78
2022/10/07 00:15:18;;;;;;;4.50;2.80;;;;;;;;;;5076166;28;20283;-79
2022/10/07 00:17:45;;;;;;;5.73;2.83;;;;;;;;;;5075616;28;20225;-78
2022/10/07 00:20:12;;;;;;;4.20;2.70;;;;;;;;;;5076065;28;20201;-78
2022/10/07 00:22:39;;;;;;;6.87;3.23;;;;;;;;;;5075239;28;20217;-78
2022/10/07 00:25:07;;;;;;;5.40;2.80;;;;;;;;;;5075912;28;20216;-79
2022/10/07 00:27:34;;;;;;;4.80;2.63;;;;;;;;;;5075087;28;20741;-79
2022/10/07 00:30:02;;;;;;;3.03;2.73;;;;;;;;;;5075872;28;20573;-78
2022/10/07 00:32:29;;;;;;;2.63;2.30;;;;;;;;;;5073955;28;20576;-79
2022/10/07 00:34:56;;;;;;;5.20;2.93;;;;;;;;;;5075362;28;20717;-79
2022/10/07 00:37:23;;;;;;;6.90;2.83;;;;;;;;;;5074943;28;20688;-79
2022/10/07 00:39:50;;;;;;;5.17;2.83;;;;;;;;;;5075447;28;20202;-79
2022/10/07 00:42:17;;;;;;;3.77;2.93;;;;;;;;;;5076122;28;20225;-79
2022/10/07 00:44:47;;;;;;;2.93;2.67;;;;;;;;;;5075374;28;20253;-79
2022/10/07 00:47:20;;;;;;;4.10;2.93;;;;;;;;;;5075577;28;20212;-78
2022/10/07 00:49:49;;;;;;;3.77;2.77;;;;;;;;;;5075228;28;20552;-78
2022/10/07 00:52:19;;;;;;;3.43;2.63;;;;;;;;;;5075546;28;20229;-79
2022/10/07 00:54:46;;;;;;;4.97;2.80;;;;;;;;;;5075472;28;20233;-79
2022/10/07 00:57:14;;;;;;;9.57;3.07;;;;;;;;;;5075125;28;20653;-79
2022/10/07 00:59:41;;;;;;;3.10;2.57;;;;;;;;;;5074971;28;20243;-79
2022/10/07 01:02:08;;;;;;;6.83;2.80;;;;;;;;;;5074960;28;20221;-79
2022/10/07 01:04:37;;;;;;;4.53;2.60;;;;;;;;;;5075038;28;20233;-78
2022/10/07 01:07:04;;;;;;;5.80;3.00;;;;;;;;;;5074994;28;20194;-79
2022/10/07 01:09:32;;;;;;;2.60;2.40;;;;;;;;;;5074859;28;20229;-79
2022/10/07 01:12:20;;;;;;;4.37;2.70;;;;;;;;;;5075051;28;20236;-78
2022/10/07 01:14:51;;;;;;;7.77;2.67;;;;;;;;;;5074659;28;20323;-79
2022/10/07 01:17:21;;;;;;;7.70;2.53;;;;;;;;;;5075340;28;20197;-79
2022/10/07 01:20:00;;;;;;;4.63;2.50;;;;;;;;;;5074361;28;20217;-79
2022/10/07 01:22:30;;;;;;;2.43;2.23;;;;;;;;;;5074078;28;20680;-78
2022/10/07 01:25:03;;;;;;;7.80;2.70;;;;;;;;;;5074926;28;20186;-79
2022/10/07 01:27:33;;;;;;;5.93;4.27;;;;;;;;;;5074031;28;20220;-79
2022/10/07 01:30:02;;;;;;;3.80;2.90;;;;;;;;;;5074781;28;20224;-78
2022/10/07 01:32:31;;;;;;;6.70;2.80;;;;;;;;;;5074101;28;20236;-78
2022/10/07 01:34:59;;;;;;;6.30;3.00;;;;;;;;;;5074374;28;20221;-79
2022/10/07 01:37:29;;;;;;;7.53;3.00;;;;;;;;;;5074116;28;20201;-79
2022/10/07 01:40:02;;;;;;;6.90;2.70;;;;;;;;;;5075180;28;20542;-79
2022/10/07 01:42:29;;;;;;;5.73;2.50;;;;;;;;;;5073634;28;20716;-79
2022/10/07 01:44:59;;;;;;;5.93;2.60;;;;;;;;;;5074218;28;20212;-78
2022/10/07 01:47:26;;;;;;;3.00;2.70;;;;;;;;;;5073890;28;20216;-81
2022/10/07 01:53:03;;;;;;;4.37;2.80;;;;;;;;;;5073743;28;20611;-78
2022/10/07 01:55:38;;;;;;;3.97;2.87;;;;;;;;;;5074003;28;20186;-78
2022/10/07 01:58:12;;;;;;;5.17;2.50;;;;;;;;;;5073782;28;20224;-79
2022/10/07 02:00:43;;;;;;;4.00;2.80;;;;;;;;;;5074219;28;20204;-79
2022/10/07 02:03:20;;;;;;;2.87;2.63;;;;;;;;;;5073734;28;20267;-79
2022/10/07 02:05:49;;;;;;;8.30;2.80;;;;;;;;;;5073786;28;20194;-79
2022/10/07 02:08:23;;;;;;;5.97;2.77;;;;;;;;;;5073783;28;20255;-79
2022/10/07 02:11:02;;;;;;;3.60;2.80;;;;;;;;;;5073874;28;20255;-79
2022/10/07 02:13:33;;;;;;;4.17;2.80;;;;;;;;;;5073251;28;20681;-78
2022/10/07 02:16:04;;;;;;;6.33;2.90;;;;;;;;;;5073941;28;20190;-79
2022/10/07 02:18:32;;;;;;;2.73;2.53;;;;;;;;;;5073422;28;20689;-79
2022/10/07 02:21:02;;;;;;;4.53;2.90;;;;;;;;;;5073595;28;20213;-78
2022/10/07 02:23:33;;;;;;;5.60;3.17;;;;;;;;;;5073462;28;20240;-78
2022/10/07 02:26:00;;;;;;;2.87;2.67;;;;;;;;;;5073753;28;20194;-79
2022/10/07 02:28:28;;;;;;;7.10;3.20;;;;;;;;;;5073332;28;20237;-78
2022/10/07 02:30:57;;;;;;;9.97;3.00;;;;;;;;;;5084417;22;20233;-93
2022/10/07 02:33:56;;;;;;;3.50;3.20;;;;;;;;;;5052829;28;20236;-92
2022/10/07 02:36:26;;;;;;;3.70;3.00;;;;;;;;;;5052832;28;20209;-93
2022/10/07 02:38:54;;;;;;;3.57;2.93;;;;;;;;;;5053049;28;20316;-92
2022/10/07 02:41:31;;;;;;;5.53;3.00;;;;;;;;;;5053393;28;20226;-92
2022/10/07 02:43:59;;;;;;;4.20;2.67;;;;;;;;;;5052871;28;20288;-92
2022/10/07 02:46:27;;;;;;;6.30;2.87;;;;;;;;;;5053479;28;20210;-91
2022/10/07 02:48:58;;;;;;;4.43;2.83;;;;;;;;;;5056062;28;20240;-92
2022/10/07 02:51:30;;;;;;;3.07;2.83;;;;;;;;;;5053544;28;20574;-92
2022/10/07 02:53:59;;;;;;;3.40;2.60;;;;;;;;;;5052448;28;20238;-93
2022/10/07 02:56:26;;;;;;;9.20;3.00;;;;;;;;;;5053130;28;20210;-92
2022/10/07 02:58:54;;;;;;;4.90;2.60;;;;;;;;;;5052631;28;20240;-92
2022/10/07 03:01:23;;;;;;;3.33;2.93;;;;;;;;;;5053010;28;20221;-92
2022/10/07 03:03:50;;;;;;;5.90;2.63;;;;;;;;;;5052477;28;20233;-92
2022/10/07 03:06:19;;;;;;;2.83;2.60;;;;;;;;;;5052894;28;20206;-92
2022/10/07 03:08:48;;;;;;;5.97;3.00;;;;;;;;;;5052527;28;20604;-92
2022/10/07 03:11:15;;;;;;;3.10;2.77;;;;;;;;;;5053107;28;20230;-92
2022/10/07 03:13:43;;;;;;;3.80;2.63;;;;;;;;;;5052425;28;20229;-91
2022/10/07 03:16:10;;;;;;;5.27;2.90;;;;;;;;;;5053152;28;20218;-92
2022/10/07 03:18:37;;;;;;;3.67;2.67;;;;;;;;;;5052228;28;20705;-92
2022/10/07 03:21:05;;;;;;;4.17;3.10;;;;;;;;;;5052518;28;20226;-92
2022/10/07 03:23:32;;;;;;;8.43;3.93;;;;;;;;;;5052187;28;20600;-93
2022/10/07 03:26:01;;;;;;;7.63;3.27;;;;;;;;;;5052774;28;20656;-92
2022/10/07 03:28:29;;;;;;;5.70;3.07;;;;;;;;;;5052324;28;20236;-92
2022/10/07 03:31:04;;;;;;;10.50;3.13;;;;;;;;;;5052528;28;20229;-92
2022/10/07 03:33:31;;;;;;;5.63;3.37;;;;;;;;;;5052119;28;20233;-92
2022/10/07 03:35:58;;;;;;;6.73;3.03;;;;;;;;;;5052421;28;20236;-92
2022/10/07 03:38:25;;;;;;;5.20;2.90;;;;;;;;;;5052074;28;20709;-92
2022/10/07 03:40:52;;;;;;;5.70;3.00;;;;;;;;;;5052569;28;20226;-92
2022/10/07 03:43:20;;;;;;;4.37;3.20;;;;;;;;;;5052503;28;20706;-90
2022/10/07 03:45:50;;;;;;;3.63;2.90;;;;;;;;;;5053706;28;20214;-92
2022/10/07 03:48:17;;;;;;;4.97;2.77;;;;;;;;;;5052475;28;20725;-92
2022/10/07 03:50:48;;;;;;;3.63;2.80;;;;;;;;;;5033134;28;20223;-92
2022/10/07 03:53:15;;;;;;;7.17;2.97;;;;;;;;;;5032458;28;20238;-92
2022/10/07 03:55:42;;;;;;;4.23;3.00;;;;;;;;;;5033098;28;20230;-92
2022/10/07 03:58:09;;;;;;;5.40;3.20;;;;;;;;;;5032513;28;20230;-92
2022/10/07 04:00:39;;;;;;;4.20;3.40;;;;;;;;;;5033397;28;20235;-92
2022/10/07 04:03:06;;;;;;;4.50;3.20;;;;;;;;;;5032989;28;20227;-92
2022/10/07 04:05:34;;;;;;;3.33;2.93;;;;;;;;;;5033442;28;20686;-92
2022/10/07 04:08:01;;;;;;;7.13;2.90;;;;;;;;;;5050004;28;20225;-92
2022/10/07 04:10:28;;;;;;;7.07;3.30;;;;;;;;;;5057464;28;20716;-93
2022/10/07 04:12:55;;;;;;;3.20;2.90;;;;;;;;;;5053636;28;20317;-90
2022/10/07 04:15:22;;;;;;;3.27;2.97;;;;;;;;;;5035154;28;20238;-90
2022/10/07 04:17:55;;;;;;;7.23;3.30;;;;;;;;;;5044450;28;20230;-90
2022/10/07 04:20:22;;;;;;;4.33;3.00;;;;;;;;;;5054069;28;20779;-90
2022/10/07 04:22:49;;;;;;;3.27;2.97;;;;;;;;;;5054888;28;20628;-90
2022/10/07 04:25:36;;;;;;;6.00;3.90;;;;;;;;;;5054466;28;20248;-90
2022/10/07 04:28:07;;;;;;;8.40;3.27;;;;;;;;;;5051350;28;20309;-90
2022/10/07 04:30:38;;;;;;;4.50;3.47;;;;;;;;;;5034983;28;20226;-90
2022/10/07 04:33:07;;;;;;;3.77;3.07;;;;;;;;;;5047892;28;20740;-90
2022/10/07 04:35:36;;;;;;;3.93;3.10;;;;;;;;;;5055102;28;20226;-90
2022/10/07 04:38:04;;;;;;;3.13;2.90;;;;;;;;;;5054636;28;20226;-90
2022/10/07 04:40:31;;;;;;;8.20;3.30;;;;;;;;;;5055009;28;20230;-90
2022/10/07 04:45:43;;;;;;;3.67;3.33;;;;;;;;;;5055429;28;20220;-91
2022/10/07 04:48:11;;;;;;;5.97;3.20;;;;;;;;;;5054863;28;20229;-91
2022/10/07 04:50:39;;;;;;;8.50;3.30;;;;;;;;;;5055112;28;20218;-90
2022/10/07 04:53:06;;;;;;;3.90;3.50;;;;;;;;;;5054516;28;20709;-92
2022/10/07 04:55:36;;;;;;;5.47;4.40;;;;;;;;;;5060673;28;20317;-91
2022/10/07 04:58:05;;;;;;;4.83;3.37;;;;;;;;;;5061870;28;20238;-91
2022/10/07 05:00:32;;;;;;;4.63;3.90;;;;;;;;;;5064365;28;20221;-91
2022/10/07 05:03:00;;;;;;;4.13;3.50;;;;;;;;;;5065534;28;20240;-91
2022/10/07 05:05:28;;;;;;;7.30;3.80;;;;;;;;;;5070123;28;20201;-91
2022/10/07 05:07:55;;;;;;;6.07;3.60;;;;;;;;;;5064260;28;20230;-91
2022/10/07 05:10:22;;;;;;;8.70;4.27;;;;;;;;;;5062332;28;20701;-91
2022/10/07 05:12:50;;;;;;;6.30;3.70;;;;;;;;;;5058640;28;20234;-91
2022/10/07 05:15:17;;;;;;;4.33;3.50;;;;;;;;;;5055225;28;20226;-91
2022/10/07 05:17:51;;;;;;;4.53;3.90;;;;;;;;;;5056892;28;20237;-91
2022/10/07 05:20:18;;;;;;;7.67;3.33;;;;;;;;;;5054246;28;20264;-93
2022/10/07 05:22:46;;;;;;;4.07;3.27;;;;;;;;;;5054905;28;20713;-93
2022/10/07 05:25:14;;;;;;;3.70;3.20;;;;;;;;;;5055108;28;20201;-92
2022/10/07 05:27:41;;;;;;;11.60;3.80;;;;;;;;;;5054635;28;20236;-92
2022/10/07 05:30:08;;;;;;;7.30;3.67;;;;;;;;;;5054985;28;20233;-92
2022/10/07 05:32:35;;;;;;;5.53;3.57;;;;;;;;;;5054233;28;20306;-92
2022/10/07 05:35:02;;;;;;;10.33;3.97;;;;;;;;;;5055083;28;20745;-91
2022/10/07 05:37:31;;;;;;;8.00;3.50;;;;;;;;;;5055259;28;20214;-91
2022/10/07 05:39:59;;;;;;;5.00;3.20;;;;;;;;;;5056659;28;20234;-90
2022/10/07 05:42:26;;;;;;;6.27;3.70;;;;;;;;;;5055527;28;20674;-90
2022/10/07 05:44:53;;;;;;;7.03;3.60;;;;;;;;;;5055465;28;20670;-89
2022/10/07 05:47:21;;;;;;;9.73;3.70;;;;;;;;;;5053764;28;20197;-89
2022/10/07 05:49:48;;;;;;;4.57;3.50;;;;;;;;;;5054057;28;20230;-89
2022/10/07 05:52:15;;;;;;;6.97;3.53;;;;;;;;;;5054566;28;20224;-90
2022/10/07 05:54:42;;;;;;;6.73;3.60;;;;;;;;;;5054440;28;20236;-88
2022/10/07 05:57:10;;;;;;;7.07;3.80;;;;;;;;;;5054872;28;20202;-89
2022/10/07 05:59:37;;;;;;;7.07;3.77;;;;;;;;;;5054353;28;20589;-92
2022/10/07 06:02:04;;;;;;;6.13;3.90;;;;;;;;;;5055707;28;20600;-91
2022/10/07 06:04:31;;;;;;;6.80;4.13;;;;;;;;;;5054970;28;20234;-90
2022/10/07 06:06:59;;;;;;;12.20;4.00;;;;;;;;;;5061522;28;20214;-91
2022/10/07 06:14:58;;;;;;;9.17;5.80;;;;;;;;;;5055039;28;20279;-90
2022/10/07 06:17:25;;;;;;;6.07;4.00;;;;;;;;;;5055110;28;20641;-91
2022/10/07 06:19:52;;;;;;;6.60;5.30;;;;;;;;;;5056109;28;20325;-91
2022/10/07 06:22:19;;;;;;;8.67;6.57;;;;;;;;;;5055920;28;20205;-90
2022/10/07 06:24:46;;;;;;;9.30;5.20;;;;;;;;;;5054251;28;20206;-90
2022/10/07 06:27:15;;;;;;;8.37;4.30;;;;;;;;;;5053913;28;20210;-87
2022/10/07 06:29:42;;;;;;;8.57;4.00;;;;;;;;;;5031416;28;20241;-87
2022/10/07 06:32:10;;;;;;;4.73;3.63;;;;;;;;;;5041572;28;20194;-87
2022/10/07 06:34:37;;;;;;;10.57;4.90;;;;;;;;;;5046809;28;20232;-88
2022/10/07 06:37:04;;;;;;;6.43;3.93;;;;;;;;;;5045154;28;20647;-88
2022/10/07 06:39:31;;;;;;;9.00;4.13;;;;;;;;;;5051685;28;20575;-87
2022/10/07 06:41:58;;;;;;;7.90;4.03;;;;;;;;;;5051854;28;20571;-86
2022/10/07 06:44:29;;;;;;;5.70;4.27;;;;;;;;;;5053510;28;20237;-85
2022/10/07 06:46:56;;;;;;;6.50;4.07;;;;;;;;;;5036821;28;20206;-89
2022/10/07 06:49:23;;;;;;;7.77;4.17;;;;;;;;;;5032431;28;20246;-87
2022/10/07 06:51:50;;;;;;;9.43;4.43;;;;;;;;;;5032493;28;20227;-87
2022/10/07 06:54:18;;;;;;;6.80;4.17;;;;;;;;;;5032469;28;20245;-89
2022/10/07 06:56:45;;;;;;;13.63;4.53;;;;;;;;;;5032410;28;20218;-86
2022/10/07 06:59:12;;;;;;;7.57;4.53;;;;;;;;;;5047763;28;20282;-87
2022/10/07 07:01:41;;;;;;;6.80;4.43;;;;;;;;;;5048530;28;20230;-87
2022/10/07 07:04:08;;;;;;;6.23;4.50;;;;;;;;;;5051422;28;20226;-88
2022/10/07 07:06:37;;;;;;;9.90;4.43;;;;;;;;;;5052877;28;20199;-87
2022/10/07 07:09:04;;;;;;;10.27;4.87;;;;;;;;;;5036940;28;20238;-88
2022/10/07 07:11:39;;;;;;;6.60;4.77;;;;;;;;;;5045614;28;20279;-88
2022/10/07 07:14:07;;;;;;;6.53;4.43;;;;;;;;;;5045111;28;20268;-86
2022/10/07 07:16:36;;;;;;;8.30;4.60;;;;;;;;;;5053535;28;20214;-88
2022/10/07 07:19:05;;;;;;;7.30;4.13;;;;;;;;;;5035569;28;20235;-89
2022/10/07 07:21:33;;;;;;;9.63;4.50;;;;;;;;;;5034669;28;20230;-87
2022/10/07 07:24:01;;;;;;;9.23;4.77;;;;;;;;;;5036794;28;20234;-87
2022/10/07 07:26:28;;;;;;;13.33;4.93;;;;;;;;;;5033768;28;20199;-88
2022/10/07 07:28:57;;;;;;;11.10;4.87;;;;;;;;;;5045175;28;20226;-89
2022/10/07 07:31:24;;;;;;;7.80;5.07;;;;;;;;;;5041048;28;20241;-90
2022/10/07 07:33:52;;;;;;;11.03;4.67;;;;;;;;;;5041928;28;20702;-86
2022/10/07 07:36:22;;;;;;;6.70;4.63;;;;;;;;;;5035173;28;20300;-88
2022/10/07 07:38:52;;;;;;;7.80;4.90;;;;;;;;;;5048262;28;20230;-87
2022/10/07 07:41:20;;;;;;;9.93;4.63;;;;;;;;;;5052733;28;20607;-87
2022/10/07 07:43:50;;;;;;;8.17;4.43;;;;;;;;;;5034777;28;20330;-87
2022/10/07 07:46:18;;;;;;;11.80;5.00;;;;;;;;;;5042000;28;20592;-88
2022/10/07 07:48:46;;;;;;;8.60;5.30;;;;;;;;;;5042701;28;20697;-88
2022/10/07 07:51:14;;;;;;;10.50;4.80;;;;;;;;;;5055972;28;20222;-88
2022/10/07 07:53:43;;;;;;;11.13;4.80;;;;;;;;;;5041028;28;20234;-94
2022/10/07 07:56:10;;;;;;;6.83;4.93;;;;;;;;;;5038763;28;20596;-92
2022/10/07 07:58:37;;;;;;;10.03;8.07;;;;;;;;;;5037030;28;20722;-92
2022/10/07 08:01:06;;;;;;;6.03;4.60;;;;;;;;;;5036749;28;20226;-91
2022/10/07 08:03:33;;;;;;;7.13;4.70;;;;;;;;;;5036863;28;20302;-90
2022/10/07 08:06:01;;;;;;;10.40;5.00;;;;;;;;;;5037995;28;20206;-90
2022/10/07 08:08:29;;;;;;;8.30;4.10;;;;;;;;;;5037161;28;20264;-90
2022/10/07 08:10:58;;;;;;;10.63;4.43;;;;;;;;;;5036450;28;20577;-91
2022/10/07 08:13:27;;;;;;;8.10;4.67;;;;;;;;;;5056847;28;20230;-91
2022/10/07 08:15:56;;;;;;;7.53;4.23;;;;;;;;;;5058573;28;20608;-90
2022/10/07 08:18:23;;;;;;;6.53;4.73;;;;;;;;;;5061905;28;21036;-91
2022/10/07 08:20:56;;;;;;;5.83;4.10;;;;;;;;;;5060483;28;20768;-91
2022/10/07 08:23:25;;;;;;;7.90;4.00;;;;;;;;;;5057187;28;20233;-91
2022/10/07 08:25:55;;;;;;;10.03;4.47;;;;;;;;;;5056908;28;20228;-91
2022/10/07 08:28:23;;;;;;;13.63;4.73;;;;;;;;;;5056731;28;20257;-88
2022/10/07 08:30:50;;;;;;;14.57;4.13;;;;;;;;;;5057074;28;20229;-90
2022/10/07 08:33:18;;;;;;;8.23;4.03;;;;;;;;;;5057039;28;20237;-89
2022/10/07 08:35:49;;;;;;;7.70;4.20;;;;;;;;;;5057550;28;20233;-90
2022/10/07 08:38:16;;;;;;;6.80;3.93;;;;;;;;;;5055999;28;20233;-91
2022/10/07 08:40:46;;;;;;;7.83;3.80;;;;;;;;;;5055191;28;20234;-90
2022/10/07 08:43:14;;;;;;;4.63;4.00;;;;;;;;;;5045718;28;20237;-91
2022/10/07 08:45:43;;;;;;;6.90;3.40;;;;;;;;;;5046117;28;20210;-92
2022/10/07 08:48:13;;;;;;;5.80;3.90;;;;;;;;;;5034862;28;20226;-90
2022/10/07 08:50:46;;;;;;;5.20;3.33;;;;;;;;;;5036336;28;20233;-90
2022/10/07 08:53:16;;;;;;;10.93;3.50;;;;;;;;;;5034925;28;20234;-91
2022/10/07 08:55:45;;;;;;;8.97;4.10;;;;;;;;;;5041490;28;20226;-92
2022/10/07 08:58:25;;;;;;;8.73;4.50;;;;;;;;;;5062549;28;20229;-92
2022/10/07 09:00:59;;;;;;;8.53;3.40;;;;;;;;;;5055325;28;20222;-91
2022/10/07 09:03:34;;;;;;;7.70;3.27;;;;;;;;;;5054874;28;20245;-91
2022/10/07 09:06:04;;;;;;;8.87;3.33;;;;;;;;;;5055678;28;20190;-91
2022/10/07 09:08:35;;;;;;;7.07;3.57;;;;;;;;;;5054800;28;20226;-91
2022/10/07 09:11:14;;;;;;;4.60;3.83;;;;;;;;;;5054838;28;20226;-91
2022/10/07 09:13:43;;;;;;;9.53;3.60;;;;;;;;;;5054828;28;20256;-91
2022/10/07 09:16:14;;;;;;;4.40;3.00;;;;;;;;;;5055354;28;20228;-92
2022/10/07 09:18:43;;;;;;;7.47;3.40;;;;;;;;;;5054680;28;20230;-92
2022/10/07 09:21:15;;;;;;;12.53;3.67;;;;;;;;;;5054706;28;20705;-82
2022/10/07 09:23:42;;;;;;;5.10;2.60;;;;;;;;;;5053220;28;20615;-82
2022/10/07 09:26:10;;;;;;;4.50;2.97;;;;;;;;;;5054023;28;20210;-82
2022/10/07 09:28:37;;;;;;;6.00;3.17;;;;;;;;;;5053099;28;20234;-82
2022/10/07 09:31:04;;;;;;;4.07;2.83;;;;;;;;;;5036575;28;20746;-82
2022/10/07 09:33:36;;;;;;;6.80;2.73;;;;;;;;;;5032989;28;20227;-83
2022/10/07 09:36:05;;;;;;;3.83;2.93;;;;;;;;;;5033468;28;20603;-83
2022/10/07 09:38:34;;;;;;;6.33;2.80;;;;;;;;;;5032754;28;20743;-83
2022/10/07 09:41:18;;;;;;;6.43;4.07;;;;;;;;;;5033280;28;20227;-83
2022/10/07 09:43:56;;;;;;;4.57;2.57;;;;;;;;;;5032823;28;20258;-82
2022/10/07 09:46:30;;;;;;;6.30;3.00;;;;;;;;;;5033409;28;20206;-83
2022/10/07 09:49:00;;;;;;;5.80;2.50;;;;;;;;;;5032616;28;20262;-83
2022/10/07 09:51:28;;;;;;;4.07;2.23;;;;;;;;;;5033284;28;20313;-83
2022/10/07 09:53:57;;;;;;;3.93;2.97;;;;;;;;;;5032902;28;20243;-84
2022/10/07 09:56:35;;;;;;;4.70;2.90;;;;;;;;;;5032876;28;20226;-83
2022/10/07 09:59:20;;;;;;;6.17;2.63;;;;;;;;;;5032593;28;20237;-84
2022/10/07 10:01:49;;;;;;;4.27;2.80;;;;;;;;;;5033107;28;20226;-83
2022/10/07 10:04:19;;;;;;;3.87;2.20;;;;;;;;;;5031455;28;20238;-83
2022/10/07 10:06:47;;;;;;;3.83;2.63;;;;;;;;;;5032880;28;20210;-83
2022/10/07 10:09:21;;;;;;;3.23;2.37;;;;;;;;;;5032400;28;20238;-84
2022/10/07 10:12:01;;;;;;;3.87;2.40;;;;;;;;;;5032705;28;20226;-83
2022/10/07 10:14:34;;;;;;;3.30;2.23;;;;;;;;;;5032293;28;20245;-83
2022/10/07 10:17:01;;;;;;;6.83;2.47;;;;;;;;;;5032853;28;20298;-83
2022/10/07 10:19:29;;;;;;;5.05;2.63;;;;;;;;;;5032052;28;20230;-84
2022/10/07 10:21:57;;;;;;;4.97;1.92;;;;;;;;;;5032530;28;20207;-83
2022/10/07 10:27:09;;;;;;;3.55;2.00;;;;;;;;;;5031891;28;20636;-84
2022/10/07 10:29:41;;;;;;;6.40;2.30;;;;;;;;;;5031558;28;20238;-84
2022/10/07 10:32:23;;;;;;;4.53;2.03;;;;;;;;;;5032410;28;20845;-83
2022/10/07 10:34:55;;;;;;;3.70;1.88;;;;;;;;;;5015889;28;20229;-83
2022/10/07 10:37:25;;;;;;;3.22;1.70;;;;;;;;;;5032584;28;20215;-84
2022/10/07 10:39:57;;;;;;;4.47;1.58;;;;;;;;;;5045437;28;20252;-83
2022/10/07 10:42:27;;;;;;;9.32;3.03;;;;;;;;;;5051970;28;20191;-83
2022/10/07 10:45:02;;;;;;;5.25;1.77;;;;;;;;;;5052314;28;20202;-83
2022/10/07 10:47:35;;;;;;;2.03;1.55;;;;;;;;;;5051890;28;20213;-84
2022/10/07 10:50:10;;;;;;;3.67;1.50;;;;;;;;;;5052724;28;20226;-83
2022/10/07 10:52:44;;;;;;;2.47;1.52;;;;;;;;;;5052251;28;20240;-83
2022/10/07 10:55:18;;;;;;;3.72;1.58;;;;;;;;;;5052268;28;20218;-83
2022/10/07 10:57:50;;;;;;;2.92;1.77;;;;;;;;;;5051951;28;20317;-84
2022/10/07 11:00:19;;;;;;;2.78;1.60;;;;;;;;;;5052605;28;20241;-84
2022/10/07 11:03:05;;;;;;;2.65;1.52;;;;;;;;;;5051965;28;20229;-84
2022/10/07 11:05:35;;;;;;;5.47;1.58;;;;;;;;;;5052334;28;20189;-84
2022/10/07 11:08:05;;;;;;;2.95;1.92;;;;;;;;;;5051746;28;20589;-84
2022/10/07 11:10:35;;;;;;;5.03;2.22;;;;;;;;;;5051520;28;20591;-84
2022/10/07 11:13:06;;;;;;;3.55;1.80;;;;;;;;;;5051637;28;20222;-84
2022/10/07 11:15:36;;;;;;;4.70;1.35;;;;;;;;;;5052019;28;20218;-84
2022/10/07 11:18:06;;;;;;;5.40;1.88;;;;;;;;;;5051186;28;20238;-84
2022/10/07 11:20:36;;;;;;;3.17;1.75;;;;;;;;;;5052058;28;20218;-84
2022/10/07 11:23:06;;;;;;;3.10;1.45;;;;;;;;;;5051416;28;20229;-84
2022/10/07 11:25:34;;;;;;;4.72;2.10;;;;;;;;;;5051688;28;20210;-84
2022/10/07 11:28:07;;;;;;;1.98;1.33;;;;;;;;;;5051233;28;20222;-85
2022/10/07 11:30:40;;;;;;;4.15;1.73;;;;;;;;;;5051318;28;20748;-85
2022/10/07 11:33:08;;;;;;;2.90;1.40;;;;;;;;;;5051384;28;20232;-84
2022/10/07 11:35:39;;;;;;;4.05;1.50;;;;;;;;;;5052043;28;20224;-84
2022/10/07 11:38:13;;;;;;;5.93;2.10;;;;;;;;;;5050812;28;20260;-83
2022/10/07 11:40:43;;;;;;;2.72;1.55;;;;;;;;;;5051839;28;20237;-82
2022/10/07 11:43:15;;;;;;;3.90;1.70;;;;;;;;;;5031210;28;20860;-83
2022/10/07 11:45:48;;;;;;;5.03;1.90;;;;;;;;;;5031903;28;20206;-82
2022/10/07 11:48:20;;;;;;;1.95;1.60;;;;;;;;;;5031047;28;20226;-82
2022/10/07 11:50:53;;;;;;;3.70;1.77;;;;;;;;;;5031671;28;20738;-83
2022/10/07 11:53:22;;;;;;;2.78;1.50;;;;;;;;;;5031251;28;20244;-84
2022/10/07 11:55:51;;;;;;;3.42;1.75;;;;;;;;;;5031788;28;20202;-85
2022/10/07 11:58:24;;;;;;;4.40;1.70;;;;;;;;;;5031183;28;20230;-84
2022/10/07 12:00:51;;;;;;;5.55;1.83;;;;;;;;;;5034505;28;20229;-84
2022/10/07 12:03:33;;;;;;;5.55;1.70;;;;;;;;;;5052191;28;20241;-84
2022/10/07 12:06:10;;;;;;;6.30;1.80;;;;;;;;;;5052527;28;20213;-84
2022/10/07 12:08:37;;;;;;;2.40;1.40;;;;;;;;;;5050806;28;20275;-84
2022/10/07 12:11:23;;;;;;;4.32;1.60;;;;;;;;;;5051962;28;20218;-84
2022/10/07 12:13:51;;;;;;;5.03;2.00;;;;;;;;;;5050570;28;20698;-84
2022/10/07 12:16:48;;;;;;;4.50;1.98;;;;;;;;;;5051458;28;20206;-84
2022/10/07 12:19:16;;;;;;;5.90;1.80;;;;;;;;;;4988943;28;20244;-84
2022/10/07 12:22:01;;;;;;;2.88;1.70;;;;;;;;;;5037288;28;20725;-84
2022/10/07 12:24:31;;;;;;;4.45;1.70;;;;;;;;;;5050436;28;20230;-84
2022/10/07 12:26:59;;;;;;;3.72;2.45;;;;;;;;;;5051137;28;20577;-84
2022/10/07 12:29:29;;;;;;;3.67;1.60;;;;;;;;;;5053774;28;20258;-84
2022/10/07 12:31:57;;;;;;;4.43;2.13;;;;;;;;;;5055082;28;20201;-84
2022/10/07 12:34:35;;;;;;;9.38;1.75;;;;;;;;;;5054111;28;20230;-82
2022/10/07 12:37:17;;;;;;;4.88;1.63;;;;;;;;;;5054430;28;20828;-83
2022/10/07 12:39:46;;;;;;;3.47;1.67;;;;;;;;;;5041545;28;20230;-83
2022/10/07 12:42:13;;;;;;;4.70;2.22;;;;;;;;;;5054330;28;20558;-82
2022/10/07 12:44:44;;;;;;;5.35;2.10;;;;;;;;;;5053980;28;20245;-83
2022/10/07 12:47:12;;;;;;;5.22;1.70;;;;;;;;;;5054273;28;20194;-83
2022/10/07 12:49:41;;;;;;;4.38;1.98;;;;;;;;;;5053743;28;20238;-83
2022/10/07 12:52:12;;;;;;;4.60;1.70;;;;;;;;;;5054370;28;20202;-83
2022/10/07 12:54:42;;;;;;;3.80;1.70;;;;;;;;;;5053682;28;20233;-83
2022/10/07 12:57:13;;;;;;;6.22;2.17;;;;;;;;;;5054296;28;20228;-83
2022/10/07 12:59:48;;;;;;;4.95;2.10;;;;;;;;;;5053612;28;20241;-82
2022/10/07 13:02:26;;;;;;;4.07;1.70;;;;;;;;;;5054359;28;20248;-82
2022/10/07 13:05:12;;;;;;;4.50;1.92;;;;;;;;;;5053393;28;20222;-82
2022/10/07 13:08:00;;;;;;;4.90;1.80;;;;;;;;;;5053498;28;20237;-82
2022/10/07 13:10:37;;;;;;;3.80;1.75;;;;;;;;;;5049109;28;20226;-82
2022/10/07 13:13:06;;;;;;;3.15;1.88;;;;;;;;;;5053501;28;20233;-83
2022/10/07 13:15:40;;;;;;;5.85;2.35;;;;;;;;;;5054237;28;20260;-82
2022/10/07 13:18:12;;;;;;;4.05;1.90;;;;;;;;;;5053628;28;20233;-82
2022/10/07 13:20:46;;;;;;;3.85;1.60;;;;;;;;;;5054033;28;20233;-82
2022/10/07 13:23:15;;;;;;;6.43;2.17;;;;;;;;;;5053590;28;20237;-83
2022/10/07 13:25:46;;;;;;;2.17;1.70;;;;;;;;;;5053753;28;20206;-82
2022/10/07 13:28:17;;;;;;;7.72;2.88;;;;;;;;;;5053446;28;20230;-83
2022/10/07 13:30:45;;;;;;;2.88;1.55;;;;;;;;;;5053502;28;20595;-82
2022/10/07 13:33:16;;;;;;;5.20;2.28;;;;;;;;;;5053391;28;20232;-82
2022/10/07 13:35:43;;;;;;;6.53;1.73;;;;;;;;;;5053845;28;20289;-82
2022/10/07 13:38:20;;;;;;;3.28;1.95;;;;;;;;;;5052684;28;20697;-82
2022/10/07 13:40:52;;;;;;;3.33;2.05;;;;;;;;;;5053611;28;20221;-82
2022/10/07 13:43:24;;;;;;;13.43;2.55;;;;;;;;;;5053231;28;20241;-82
2022/10/07 13:45:51;;;;;;;6.80;2.70;;;;;;;;;;5053690;28;20197;-82
2022/10/07 13:48:21;;;;;;;4.72;2.10;;;;;;;;;;5052417;28;20226;-82
2022/10/07 13:50:49;;;;;;;5.03;2.00;;;;;;;;;;5053009;28;20225;-82
2022/10/07 13:53:20;;;;;;;3.72;1.90;;;;;;;;;;5053150;28;20236;-82
2022/10/07 13:55:47;;;;;;;6.78;2.22;;;;;;;;;;5053514;28;20638;-82
2022/10/07 13:58:15;;;;;;;5.22;2.58;;;;;;;;;;5052856;28;20229;-83
2022/10/07 14:00:45;;;;;;;5.78;2.08;;;;;;;;;;5052823;28;20729;-83
2022/10/07 14:03:16;;;;;;;4.47;1.95;;;;;;;;;;5052696;28;20230;-83
2022/10/07 14:05:48;;;;;;;6.45;2.30;;;;;;;;;;5052728;28;20198;-83
2022/10/07 14:08:20;;;;;;;6.30;2.22;;;;;;;;;;5052482;28;20230;-83
2022/10/07 14:10:51;;;;;;;3.50;2.10;;;;;;;;;;5053098;28;20320;-82
2022/10/07 14:13:19;;;;;;;4.85;2.58;;;;;;;;;;5052405;28;20238;-82
2022/10/07 14:15:50;;;;;;;9.80;2.80;;;;;;;;;;5053009;28;20209;-82
2022/10/07 14:18:17;;;;;;;4.47;2.00;;;;;;;;;;5052138;28;20645;-82
2022/10/07 14:20:50;;;;;;;11.93;2.17;;;;;;;;;;5052394;28;20729;-82
2022/10/07 14:23:23;;;;;;;3.92;1.88;;;;;;;;;;5052385;28;20597;-82
2022/10/07 14:25:53;;;;;;;6.88;2.03;;;;;;;;;;5052442;28;20685;-82
2022/10/07 14:28:21;;;;;;;5.28;1.92;;;;;;;;;;5051887;28;20542;-82
2022/10/07 14:36:57;;;;;;;7.50;2.15;;;;;;;;;;5052318;28;20201;-83
2022/10/07 14:39:31;;;;;;;8.35;2.10;;;;;;;;;;5047964;28;20265;-83
2022/10/07 14:41:58;;;;;;;4.82;1.90;;;;;;;;;;5052239;28;20179;-83
2022/10/07 14:44:25;;;;;;;5.13;1.98;;;;;;;;;;5051624;28;20230;-85
2022/10/07 14:47:03;;;;;;;8.95;1.98;;;;;;;;;;5052454;28;20259;-83
2022/10/07 14:49:30;;;;;;;3.95;2.03;;;;;;;;;;5051297;28;20824;-83
2022/10/07 14:51:58;;;;;;;6.43;2.03;;;;;;;;;;5051321;28;20578;-85
2022/10/07 14:54:25;;;;;;;4.68;2.00;;;;;;;;;;5051652;28;20725;-83
2022/10/07 14:56:52;;;;;;;5.53;2.53;;;;;;;;;;5051977;28;20621;-83
2022/10/07 14:59:19;;;;;;;4.22;1.70;;;;;;;;;;5051179;28;20242;-82
2022/10/07 15:01:46;;;;;;;5.43;2.20;;;;;;;;;;5051952;28;20702;-83
2022/10/07 15:04:15;;;;;;;3.95;2.28;;;;;;;;;;5051397;28;20237;-83
2022/10/07 15:06:42;;;;;;;4.07;2.00;;;;;;;;;;5051770;28;20209;-83
2022/10/07 15:09:10;;;;;;;6.10;1.85;;;;;;;;;;5051309;28;20235;-83
2022/10/07 15:11:37;;;;;;;4.35;2.00;;;;;;;;;;5051755;28;20217;-84
2022/10/07 15:14:04;;;;;;;8.68;2.35;;;;;;;;;;5051443;28;20241;-83
2022/10/07 15:16:31;;;;;;;6.93;2.25;;;;;;;;;;5051980;28;20216;-83
2022/10/07 15:19:02;;;;;;;5.85;1.95;;;;;;;;;;5051561;28;20233;-83